Create Custom Reports and Graphics: Custom Report

AM-Roundhouse Top 7880'

Current Conditions

6/22/24 6:45 PM (-07:00)
Updated Every 15 Minutes
Temp 67.4 °F   1.1
RH 39 %   3
Wet Bulb 52.4 °F   0.1
Dew Pt 41.9 °F   1.1
Wind Spd 7.4 mph   6.1
Wind Dir SE | 143 °
Wind Gust 19.8 mph   14.1
WindChill 67.8 °F   1.1

Last 6 Hours

AM-Roundhouse Top 7880'

15 Minute Data | America/Los_Angeles
as of 6/24/24 8:22 PM PDT
No Data Available

Last 30 Days

AM-Roundhouse Top 7880'

Daily Data | America/Los_Angeles
as of 6/24/24 8:22 PM PDT
Date Daily Max Temp (°F) Daily Min Temp (°F) Wind Spd (mph) Daily Max Wind (mph) Max RH (%) Min RH (%) Wet Bulb (°F) MinBV Day (V)
6/21/24 73.7 51.5 3.0 16.3 53 16 47.6 14.3
6/20/24 67.9 45.3 4.1 19.4 55 16 44.4 14.3
6/19/24 62.2 42.1 3.9 19.7 49 16 40.4 14.4
6/18/24 56.9 37.2 4.6 20.7 43 13 34.9 14.4
6/17/24 53.8 37.1 4.3 24.4 89 10 35.2 14.4
6/16/24 62.2 42.1 4.7 24.0 65 11 38.4 14.4
6/15/24 60.9 44.7 4.4 22.1 54 13 38.6 14.4
6/14/24 66.1 47.5 6.1 31.2 55 15 42.3 14.4
6/13/24 71.8 53.5 5.1 22.9 66 20 50.3 14.3
6/12/24 81.6 59.1 4.0 20.1 64 8 49.5 14.3
6/11/24 78.8 55.4 3.6 19.5 67 17 51.2 14.3
6/10/24 71.6 49.9 3.8 19.6 72 31 49.5 14.3
6/9/24 66.3 51.4 5.3 29.0 57 11 44.5 14.4
6/8/24 74.3 53.2 5.4 23.3 65 9 44.5 14.4
6/7/24 79.5 54.8 4.9 27.8 54 16 48.0 14.4
6/6/24 77.1 57.8 4.8 23.7 59 24 51.0 14.4
6/5/24 81.8 56.4 3.1 17.7 60 19 52.1 14.3
6/4/24 69.3 42.5 3.0 16.4 96 36 48.5 14.4
6/3/24 50.6 44.3 4.3 29.2 92 68 44.2 14.4
6/2/24 60.7 44.8 5.4 28.5 80 32 44.1 14.3
6/1/24 66.9 45.5 5.9 22.0 69 26 43.6 14.3
5/31/24 65.9 43.5 3.9 17.6 67 18 41.7 14.4
5/30/24 68.4 40.1 3.0 19.2 70 19 41.0 14.3
5/29/24 64.3 41.7 4.0 19.0 75 19 42.1 14.4
5/28/24 59.4 43.7 4.3 22.5 82 28 42.9 14.3
5/27/24 64.8 45.4 3.4 26.1 71 30 44.5 14.3
5/26/24 61.0 35.1 2.5 17.0 66 17 38.5 14.4
5/25/24 45.5 34.5 6.3 27.7 91 23 35.0 14.4
Max 81.8 59.1 6.3 31.2 96 68 52.1 14.4
Avg - - 4.3 - - - 43.9 -
Min 45.5 34.5 2.5 16.3 43 8 34.9 14.3
No Data Available for this Wind Rose report. Either no data was reported for this station for the date range selected, or the station does not have wind sensors installed.
No Data Available for this Wind Rose report. Either no data was reported for this station for the date range selected, or the station does not have wind sensors installed.